Time;durP1;ratioP1;P1;durP2;ratioP2;P2;SDS_P1;SDS_P2;PMS_P1;PMS_P2;Temp;Humidity;BMP_temperature;BMP_pressure;BME280_temperature;BME280_humidity;BME280_pressure;Samples;Min_cycle;Max_cycle;Signal;HPM_P1;HPM_P2
2022/12/20 00:01:24;;;;;;;4.70;2.13;;;;;;;13.32;58.46;101337.78;4955430;28;108182;-69
2022/12/20 00:03:53;;;;;;;4.93;2.20;;;;;;;13.38;58.23;101337.47;4956543;28;105357;-70
2022/12/20 00:06:21;;;;;;;3.70;1.73;;;;;;;13.43;58.03;101330.16;4958505;28;123919;-70
2022/12/20 00:08:54;;;;;;;2.67;1.80;;;;;;;13.48;57.91;101315.75;4952884;28;122847;-70
2022/12/20 00:11:22;;;;;;;2.78;1.70;;;;;;;13.53;58.24;101319.03;4952700;28;108083;-68
2022/12/20 00:13:49;;;;;;;5.18;2.00;;;;;;;13.57;58.05;101331.25;4947868;28;107648;-68
2022/12/20 00:16:20;;;;;;;2.78;1.80;;;;;;;13.60;57.92;101331.13;4945299;28;123914;-68
2022/12/20 00:18:51;;;;;;;5.07;2.40;;;;;;;13.64;57.82;101332.69;4950680;28;123481;-68
2022/12/20 00:21:19;;;;;;;3.28;2.10;;;;;;;13.67;57.76;101327.19;4951771;28;110929;-67
2022/12/20 00:23:46;;;;;;;4.13;1.98;;;;;;;13.71;57.74;101334.09;4951057;28;109696;-68
2022/12/20 00:26:16;;;;;;;3.17;1.80;;;;;;;13.75;57.75;101335.66;4949450;28;123374;-67
2022/12/20 00:28:44;;;;;;;5.68;1.98;;;;;;;13.78;57.54;101335.50;4936841;28;123077;-68
2022/12/20 00:31:13;;;;;;;2.78;1.60;;;;;;;13.82;57.44;101326.44;4943855;28;108650;-68
2022/12/20 00:33:40;;;;;;;4.18;1.77;;;;;;;13.87;57.45;101317.34;4947956;28;108874;-67
2022/12/20 00:36:08;;;;;;;2.88;1.65;;;;;;;13.91;57.41;101316.25;4945286;28;124387;-68
2022/12/20 00:38:35;;;;;;;2.78;1.70;;;;;;;13.96;57.39;101306.22;4945287;28;122860;-68
2022/12/20 00:41:03;;;;;;;3.67;1.77;;;;;;;13.99;57.28;101306.94;4944945;28;109404;-67
2022/12/20 00:43:30;;;;;;;3.03;1.70;;;;;;;14.05;57.10;101311.03;4946436;28;108974;-68
2022/12/20 00:45:58;;;;;;;4.13;1.90;;;;;;;14.09;57.13;101317.06;4949277;28;124157;-68
2022/12/20 00:48:26;;;;;;;3.35;1.50;;;;;;;14.13;57.08;101319.50;4946834;28;123937;-68
2022/12/20 00:51:01;;;;;;;4.75;1.73;;;;;;;14.17;56.86;101309.56;4953147;28;109198;-68
2022/12/20 00:53:28;;;;;;;2.47;1.45;;;;;;;14.20;57.01;101306.72;4950883;28;109244;-68
2022/12/20 00:55:56;;;;;;;3.17;1.77;;;;;;;14.25;56.95;101295.84;4949262;28;125262;-68
2022/12/20 00:58:24;;;;;;;3.85;1.80;;;;;;;14.28;56.85;101300.97;4945463;28;123945;-68
2022/12/20 01:00:51;;;;;;;2.35;1.50;;;;;;;14.31;56.61;101290.16;4944478;28;108446;-68
2022/12/20 01:03:25;;;;;;;2.70;1.60;;;;;;;14.36;56.64;101288.97;4948784;28;109183;-67
2022/12/20 01:05:55;;;;;;;4.13;1.88;;;;;;;14.40;56.53;101284.34;4951170;28;124502;-68
2022/12/20 01:08:24;;;;;;;2.97;1.52;;;;;;;14.44;56.25;101291.22;4954189;28;124321;-68
2022/12/20 01:11:05;;;;;;;3.22;1.58;;;;;;;14.47;56.42;101300.88;4944020;28;109880;-68
2022/12/20 01:13:35;;;;;;;3.63;1.83;;;;;;;14.50;56.39;101306.03;4951388;28;110242;-68
2022/12/20 01:16:07;;;;;;;2.72;1.50;;;;;;;14.52;56.21;101293.47;4947551;28;123558;-68
2022/12/20 01:18:34;;;;;;;2.88;1.60;;;;;;;14.54;56.23;101292.47;4947860;28;123546;-68
2022/12/20 01:21:03;;;;;;;2.45;1.67;;;;;;;14.57;56.06;101297.63;4942777;28;109145;-68
2022/12/20 01:23:31;;;;;;;4.88;1.80;;;;;;;14.60;56.07;101299.28;4946351;28;110468;-68
2022/12/20 01:26:00;;;;;;;2.95;1.70;;;;;;;14.63;56.10;101290.25;4947164;28;124090;-68
2022/12/20 01:28:27;;;;;;;4.30;1.77;;;;;;;14.66;56.18;101303.44;4968046;28;123017;-70
2022/12/20 01:30:55;;;;;;;2.47;1.65;;;;;;;14.69;56.24;101316.56;4947348;28;108124;-70
2022/12/20 01:33:22;;;;;;;2.67;1.55;;;;;;;14.70;56.25;101323.66;4951339;28;109015;-69
2022/12/20 01:35:56;;;;;;;2.78;1.60;;;;;;;14.71;56.27;101320.00;4950761;28;123806;-69
2022/12/20 01:38:24;;;;;;;3.50;1.75;;;;;;;14.71;56.30;101314.69;4948667;28;124605;-69
2022/12/20 01:40:52;;;;;;;4.07;1.73;;;;;;;14.70;56.44;101307.66;4946282;28;109213;-69
2022/12/20 01:43:20;;;;;;;4.85;2.00;;;;;;;14.69;56.37;101284.59;4946840;28;108747;-69
2022/12/20 01:45:48;;;;;;;2.75;1.90;;;;;;;14.69;56.33;101279.25;4935155;28;123715;-70
2022/12/20 01:48:20;;;;;;;3.30;1.70;;;;;;;14.69;56.72;101284.59;4947379;28;123823;-70
2022/12/20 01:50:49;;;;;;;3.50;1.40;;;;;;;14.68;56.61;101293.53;4951523;28;109186;-70
2022/12/20 01:53:20;;;;;;;3.15;1.77;;;;;;;14.67;56.83;101307.81;4947422;28;108007;-70
2022/12/20 01:55:47;;;;;;;3.25;2.00;;;;;;;14.64;56.71;101306.19;4947584;28;121768;-70
2022/12/20 01:58:18;;;;;;;3.17;2.10;;;;;;;14.64;57.04;101318.66;4954423;28;123239;-70
2022/12/20 02:00:46;;;;;;;4.20;1.90;;;;;;;14.60;57.29;101310.81;4946254;28;108459;-70
2022/12/20 02:03:15;;;;;;;2.70;1.63;;;;;;;14.57;57.42;101292.31;4946275;28;108218;-69
2022/12/20 02:05:45;;;;;;;4.55;1.83;;;;;;;14.53;57.63;101290.72;4949852;28;122839;-70
2022/12/20 02:08:15;;;;;;;3.90;2.00;;;;;;;14.50;57.81;101295.38;4949210;28;124016;-70
2022/12/20 02:11:29;;;;;;;5.00;2.63;;;;;;;14.43;58.08;101289.53;4952378;28;109406;-70
2022/12/20 02:14:09;;;;;;;3.03;1.88;;;;;;;14.38;58.29;101286.22;4908594;28;109007;-70
2022/12/20 02:16:48;;;;;;;5.13;2.22;;;;;;;14.35;58.34;101273.06;4963792;28;123644;-70
2022/12/20 02:19:34;;;;;;;6.82;2.25;;;;;;;14.31;58.44;101275.03;4947749;28;124356;-70
2022/12/20 02:22:34;;;;;;;3.47;2.13;;;;;;;14.27;58.51;101256.66;4949856;28;109246;-70
2022/12/20 02:25:29;;;;;;;3.95;2.20;;;;;;;14.21;58.61;101248.03;4947100;28;109216;-69
2022/12/20 02:28:13;;;;;;;4.47;2.20;;;;;;;14.17;58.85;101256.28;4940491;28;124083;-70
2022/12/20 02:30:44;;;;;;;3.22;2.10;;;;;;;14.13;58.92;101250.25;4945660;28;123808;-70
2022/12/20 02:33:13;;;;;;;4.35;1.98;;;;;;;14.11;59.11;101252.13;4964508;28;108428;-70
2022/12/20 02:35:40;;;;;;;4.07;1.95;;;;;;;14.09;59.30;101254.03;4933170;28;108754;-69
2022/12/20 02:38:29;;;;;;;3.90;2.20;;;;;;;14.07;59.34;101252.38;4945880;28;124328;-70
2022/12/20 02:41:15;;;;;;;4.55;2.20;;;;;;;14.03;59.43;101233.03;4947539;28;123146;-70
2022/12/20 02:46:35;;;;;;;3.90;1.98;;;;;;;13.97;59.55;101217.38;4946689;28;108333;-70
2022/12/20 02:49:10;;;;;;;3.30;2.08;;;;;;;13.96;59.62;101221.00;4945104;28;123557;-70
2022/12/20 02:51:40;;;;;;;4.88;2.22;;;;;;;13.96;59.67;101218.34;4931806;28;123436;-70
2022/12/20 02:54:07;;;;;;;3.30;2.10;;;;;;;13.95;59.71;101213.94;4942799;28;109502;-70
2022/12/20 02:56:43;;;;;;;5.53;2.17;;;;;;;13.94;59.91;101204.25;4938371;28;108936;-70
2022/12/20 02:59:17;;;;;;;4.03;2.20;;;;;;;13.95;59.77;101197.97;4944045;28;124364;-70
2022/12/20 03:01:49;;;;;;;4.65;2.35;;;;;;;13.94;59.72;101206.91;4939761;28;123151;-70
2022/12/20 03:04:20;;;;;;;2.95;2.17;;;;;;;13.95;59.87;101200.63;4947152;28;109420;-70
2022/12/20 03:07:03;;;;;;;3.67;2.30;;;;;;;13.96;59.88;101194.38;4944235;28;108612;-70
2022/12/20 03:09:33;;;;;;;3.17;2.33;;;;;;;13.97;59.91;101201.41;4943790;28;124671;-70
2022/12/20 03:12:02;;;;;;;4.40;2.20;;;;;;;14.00;59.82;101201.25;4939265;28;123264;-70
2022/12/20 03:14:32;;;;;;;3.33;2.10;;;;;;;14.02;59.50;101199.38;4940766;28;108790;-70
2022/12/20 03:17:02;;;;;;;3.92;2.40;;;;;;;14.04;59.78;101197.47;4939662;28;108234;-70
2022/12/20 03:19:30;;;;;;;2.97;2.20;;;;;;;14.06;59.90;101200.91;4927534;28;123047;-70
2022/12/20 03:21:58;;;;;;;4.75;2.00;;;;;;;14.07;59.72;101202.66;4943961;28;124432;-70
2022/12/20 03:24:26;;;;;;;4.00;2.03;;;;;;;14.07;59.68;101213.31;4945738;28;109362;-70
2022/12/20 03:26:54;;;;;;;4.15;2.13;;;;;;;14.08;59.80;101215.00;4938390;28;108741;-70
2022/12/20 03:29:23;;;;;;;3.45;2.22;;;;;;;14.11;59.73;101214.84;4936973;28;124280;-70
2022/12/20 03:31:50;;;;;;;3.65;2.08;;;;;;;14.13;59.77;101207.63;4938705;28;123061;-70
2022/12/20 03:34:18;;;;;;;5.63;1.80;;;;;;;14.14;59.49;101206.69;4953237;28;108370;-70
2022/12/20 03:36:45;;;;;;;4.90;2.15;;;;;;;14.14;59.69;101193.34;4943836;28;108906;-70
2022/12/20 03:39:12;;;;;;;2.97;1.85;;;;;;;14.17;59.64;101198.53;4945267;28;124546;-70
2022/12/20 03:41:40;;;;;;;3.47;1.90;;;;;;;14.19;59.54;101206.44;4942850;28;123625;-70
2022/12/20 03:44:09;;;;;;;4.80;1.90;;;;;;;14.20;59.43;101193.03;4942144;28;109996;-69
2022/12/20 03:46:36;;;;;;;4.40;2.20;;;;;;;14.23;59.48;101196.47;4947900;28;109424;-69
2022/12/20 03:49:04;;;;;;;3.83;2.10;;;;;;;14.25;59.31;101189.25;4943829;28;123697;-69
2022/12/20 03:51:33;;;;;;;3.28;2.03;;;;;;;14.28;59.48;101199.72;4942707;28;124272;-70
2022/12/20 03:54:01;;;;;;;3.90;2.00;;;;;;;14.32;59.47;101195.97;4946790;28;108258;-69
2022/12/20 03:56:46;;;;;;;3.50;2.08;;;;;;;14.35;59.44;101195.78;4941943;28;108578;-70
2022/12/20 03:59:15;;;;;;;4.50;1.90;;;;;;;14.37;59.58;101205.44;4924347;28;124012;-70
2022/12/20 04:01:42;;;;;;;5.10;1.92;;;;;;;14.40;59.39;101201.72;4939277;28;123326;-70
2022/12/20 04:04:13;;;;;;;3.90;2.13;;;;;;;14.44;59.20;101200.63;4941449;28;108234;-70
2022/12/20 04:06:41;;;;;;;4.07;1.85;;;;;;;14.46;59.10;101206.72;4946800;28;107856;-70
2022/12/20 04:09:08;;;;;;;3.80;2.00;;;;;;;14.50;59.27;101207.41;4943726;28;124187;-70
2022/12/20 04:11:44;;;;;;;2.67;1.80;;;;;;;14.54;59.14;101209.84;4944975;28;123459;-70
2022/12/20 04:14:14;;;;;;;4.47;1.60;;;;;;;14.57;59.13;101193.69;4946797;28;109393;-70
2022/12/20 04:16:42;;;;;;;3.28;1.83;;;;;;;14.62;59.07;101192.56;4946212;28;107983;-69
2022/12/20 04:19:10;;;;;;;3.85;2.25;;;;;;;14.66;58.90;101189.66;4945427;28;123146;-70
2022/12/20 04:21:44;;;;;;;4.80;2.15;;;;;;;14.70;58.89;101182.34;4932365;28;123177;-70
2022/12/20 04:24:12;;;;;;;4.05;1.80;;;;;;;14.74;58.71;101191.88;4943100;28;108646;-69
2022/12/20 04:26:48;;;;;;;2.95;1.75;;;;;;;14.76;58.74;101180.16;4935721;28;108309;-70
2022/12/20 04:29:16;;;;;;;2.40;1.80;;;;;;;14.80;58.70;101180.84;4946726;28;123754;-69
2022/12/20 04:31:44;;;;;;;3.60;1.85;;;;;;;14.84;58.72;101182.38;4949725;28;123563;-69
2022/12/20 04:34:12;;;;;;;4.35;2.13;;;;;;;14.88;58.53;101183.06;4942638;28;109523;-69
2022/12/20 04:36:39;;;;;;;3.33;1.80;;;;;;;14.88;58.42;101173.28;4942886;28;109040;-68
2022/12/20 04:39:12;;;;;;;3.90;1.60;;;;;;;14.91;58.33;101178.44;4934350;28;123206;-67
2022/12/20 04:42:01;;;;;;;3.88;1.85;;;;;;;14.93;58.38;101173.84;4950532;28;122890;-67
2022/12/20 04:44:28;;;;;;;2.95;1.70;;;;;;;14.95;58.35;101166.63;4947242;28;108381;-68
2022/12/20 04:46:55;;;;;;;4.75;1.88;;;;;;;14.97;58.30;101167.44;4950917;28;108680;-67
2022/12/20 04:49:25;;;;;;;2.40;1.70;;;;;;;15.01;58.20;101172.56;4941598;28;123120;-67
2022/12/20 04:51:52;;;;;;;3.60;1.60;;;;;;;15.02;58.06;101168.97;4926054;28;121323;-68
2022/12/20 04:54:20;;;;;;;3.38;1.73;;;;;;;15.04;58.00;101175.06;4943238;28;108524;-67
2022/12/20 04:56:56;;;;;;;3.33;1.75;;;;;;;15.06;58.12;101175.81;4952244;28;108521;-68
2022/12/20 04:59:24;;;;;;;2.58;1.52;;;;;;;15.07;57.84;101172.19;4940118;28;124081;-68
2022/12/20 05:01:53;;;;;;;2.15;1.50;;;;;;;15.09;58.10;101165.00;4940996;28;121943;-68
2022/12/20 05:04:37;;;;;;;3.35;1.60;;;;;;;15.10;57.88;101166.69;4941528;28;110125;-68
2022/12/20 05:07:04;;;;;;;3.10;1.70;;;;;;;15.12;58.07;101170.13;4945299;28;108592;-67
2022/12/20 05:09:33;;;;;;;3.40;1.70;;;;;;;15.14;57.74;101162.88;4953339;28;123254;-67
2022/12/20 05:12:00;;;;;;;4.18;1.80;;;;;;;15.15;57.84;101159.28;4941199;28;123960;-68
2022/12/20 05:14:28;;;;;;;3.72;1.70;;;;;;;15.14;57.87;101162.88;4948247;28;108874;-68
2022/12/20 05:16:56;;;;;;;3.85;1.85;;;;;;;15.13;57.76;101163.84;4936456;28;110090;-67
2022/12/20 05:19:23;;;;;;;2.47;1.58;;;;;;;15.15;57.73;101159.28;4940776;28;123893;-68
2022/12/20 05:27:30;;;;;;;5.18;1.98;;;;;;;15.14;57.81;101146.88;4945311;28;110494;-68
2022/12/20 05:29:57;;;;;;;4.43;1.70;;;;;;;15.15;57.73;101143.28;4946334;28;124104;-68
2022/12/20 05:32:26;;;;;;;4.07;1.80;;;;;;;15.15;57.95;101132.59;4943509;28;123337;-68
2022/12/20 05:34:54;;;;;;;3.38;2.00;;;;;;;15.15;57.98;101132.59;4943908;28;108458;-68
2022/12/20 05:37:21;;;;;;;4.07;1.80;;;;;;;15.17;57.77;101136.03;4928391;28;108342;-68
2022/12/20 05:39:49;;;;;;;2.38;1.60;;;;;;;15.17;57.85;101136.03;4922492;28;123696;-68
2022/12/20 05:42:20;;;;;;;3.20;1.73;;;;;;;15.18;57.71;101135.94;4942249;28;124042;-69
2022/12/20 05:44:50;;;;;;;4.72;1.88;;;;;;;15.17;57.57;101130.69;4948762;28;107979;-68
2022/12/20 05:47:19;;;;;;;4.45;1.60;;;;;;;15.18;57.91;101132.41;4943741;28;108121;-68
2022/12/20 05:49:52;;;;;;;3.08;1.80;;;;;;;15.16;57.96;101123.63;4942991;28;123558;-68
2022/12/20 05:52:19;;;;;;;3.55;1.75;;;;;;;15.14;57.79;101117.53;4943065;28;123188;-69
2022/12/20 05:54:46;;;;;;;3.63;1.80;;;;;;;15.13;57.88;101123.84;4942905;28;109342;-69
2022/12/20 05:57:16;;;;;;;2.30;1.50;;;;;;;15.11;57.91;101125.75;4938168;28;108273;-69
2022/12/20 05:59:45;;;;;;;4.10;2.00;;;;;;;15.10;57.97;101130.19;4945462;28;122312;-68
2022/12/20 06:02:15;;;;;;;4.00;2.05;;;;;;;15.11;57.92;101125.75;4941153;28;123039;-68
2022/12/20 06:04:44;;;;;;;6.60;1.70;;;;;;;15.11;58.05;101126.59;4938756;28;108503;-68
2022/12/20 06:07:20;;;;;;;4.22;1.98;;;;;;;15.10;57.93;101124.00;4944967;28;108143;-68
2022/12/20 06:09:51;;;;;;;4.13;1.73;;;;;;;15.10;57.98;101124.00;4943207;28;123769;-68
2022/12/20 06:12:23;;;;;;;5.00;1.70;;;;;;;15.10;57.89;101118.66;4939363;28;123311;-68
2022/12/20 06:14:51;;;;;;;2.83;1.77;;;;;;;15.09;57.97;101116.97;4924946;28;109430;-68
2022/12/20 06:17:20;;;;;;;3.38;1.80;;;;;;;15.08;57.88;101096.56;4948844;28;109324;-69
2022/12/20 06:19:47;;;;;;;4.07;1.90;;;;;;;15.07;57.84;101097.50;4942620;28;123166;-69
2022/12/20 06:22:16;;;;;;;4.72;2.05;;;;;;;15.05;57.73;101094.94;4941728;28;123575;-69
2022/12/20 06:24:50;;;;;;;4.75;2.40;;;;;;;15.04;57.81;101087.88;4943917;28;109169;-69
2022/12/20 06:27:22;;;;;;;5.50;1.88;;;;;;;15.04;57.80;101076.38;4938208;28;108035;-69
2022/12/20 06:29:58;;;;;;;5.53;2.22;;;;;;;15.02;57.61;101078.25;4945391;28;123699;-68
2022/12/20 06:32:31;;;;;;;3.17;1.92;;;;;;;14.98;57.86;101078.44;4947100;28;123031;-68
2022/12/20 06:34:59;;;;;;;4.10;1.98;;;;;;;14.95;57.76;101073.28;4938100;28;109006;-69
2022/12/20 06:37:27;;;;;;;4.65;2.33;;;;;;;14.92;57.77;101084.16;4935626;28;108167;-69
2022/12/20 06:39:54;;;;;;;2.58;1.88;;;;;;;14.87;57.80;101080.88;4936665;28;123221;-69
2022/12/20 06:42:22;;;;;;;3.05;2.00;;;;;;;14.84;57.74;101090.88;4941798;28;123099;-68
2022/12/20 06:44:49;;;;;;;3.40;2.13;;;;;;;14.81;57.78;101081.25;4961130;28;108685;-69
2022/12/20 06:47:16;;;;;;;7.07;2.20;;;;;;;14.79;57.64;101088.50;4941632;28;108129;-68
2022/12/20 06:49:44;;;;;;;4.05;2.20;;;;;;;14.75;57.60;101084.28;4950954;28;124921;-68
2022/12/20 06:52:19;;;;;;;4.07;1.83;;;;;;;14.73;57.56;101088.81;4937455;28;122780;-68
2022/12/20 06:54:49;;;;;;;2.92;1.95;;;;;;;14.69;57.68;101087.28;4940150;28;108246;-68
2022/12/20 06:57:16;;;;;;;2.60;1.80;;;;;;;14.66;57.66;101082.16;4951255;28;108898;-68
2022/12/20 06:59:46;;;;;;;3.95;1.77;;;;;;;14.64;57.68;101084.91;4936678;28;123614;-69
2022/12/20 07:02:14;;;;;;;4.20;1.80;;;;;;;14.63;57.63;101071.66;4944474;28;125001;-69
2022/12/20 07:04:41;;;;;;;4.60;2.00;;;;;;;14.59;57.51;101069.16;4950031;28;110904;-68
2022/12/20 07:07:08;;;;;;;2.85;1.88;;;;;;;14.58;57.73;101070.13;4952658;28;109887;-69
2022/12/20 07:09:36;;;;;;;4.05;2.00;;;;;;;14.57;57.70;101073.72;4945781;28;124024;-69
2022/12/20 07:12:04;;;;;;;3.92;2.00;;;;;;;14.57;57.59;101081.72;4944973;28;123960;-69
2022/12/20 07:14:31;;;;;;;4.22;2.03;;;;;;;14.57;57.60;101068.41;4947168;28;109281;-68
2022/12/20 07:16:58;;;;;;;3.80;1.83;;;;;;;14.57;57.48;101076.41;4949027;28;109014;-69
2022/12/20 07:19:25;;;;;;;3.03;1.85;;;;;;;14.58;57.42;101078.13;4944056;28;123475;-69
2022/12/20 07:21:52;;;;;;;3.67;1.80;;;;;;;14.58;57.42;101075.47;4944465;28;124487;-68
2022/12/20 07:24:20;;;;;;;2.05;1.50;;;;;;;14.58;57.45;101080.78;4947845;28;109542;-68
2022/12/20 07:26:47;;;;;;;4.40;1.55;;;;;;;14.61;57.25;101074.41;4944034;28;108990;-69
2022/12/20 07:29:14;;;;;;;2.78;1.60;;;;;;;14.62;57.35;101069.94;4950024;28;124038;-68
2022/12/20 07:31:42;;;;;;;3.28;1.67;;;;;;;14.64;57.36;101073.41;4940753;28;123689;-69
2022/12/20 07:34:10;;;;;;;3.33;1.70;;;;;;;14.63;57.44;101074.34;4942557;28;109377;-69
2022/12/20 07:36:37;;;;;;;4.78;1.92;;;;;;;14.66;57.11;101071.50;4941137;28;109340;-68
2022/12/20 07:39:04;;;;;;;3.60;1.70;;;;;;;14.67;57.09;101076.72;4940874;28;123997;-68
2022/12/20 07:41:31;;;;;;;3.28;1.67;;;;;;;14.69;57.03;101076.63;4936311;28;124089;-68
2022/12/20 07:43:59;;;;;;;3.25;1.60;;;;;;;14.70;57.00;101075.69;4955358;28;110104;-68
2022/12/20 07:46:26;;;;;;;3.60;1.60;;;;;;;14.72;56.86;101087.13;4944298;28;108098;-68
2022/12/20 07:48:54;;;;;;;3.28;1.67;;;;;;;14.73;57.01;101079.03;4941876;28;124206;-69
2022/12/20 07:51:28;;;;;;;4.65;1.75;;;;;;;14.74;56.92;101077.22;4945297;28;122847;-68
2022/12/20 07:54:27;;;;;;;4.72;1.60;;;;;;;14.75;57.00;101086.97;4945361;28;109262;-69
2022/12/20 07:56:59;;;;;;;4.25;1.65;;;;;;;14.77;56.84;101079.72;4938116;28;109601;-68
2022/12/20 07:59:37;;;;;;;3.03;1.50;;;;;;;14.79;56.86;101089.34;4943891;28;123873;-69
2022/12/20 08:02:07;;;;;;;3.53;1.73;;;;;;;14.80;56.72;101090.19;4937377;28;123430;-69
2022/12/20 08:04:34;;;;;;;4.38;1.60;;;;;;;14.81;56.81;101086.59;4948735;28;109323;-70
2022/12/20 08:07:02;;;;;;;3.72;1.65;;;;;;;14.82;56.62;101088.28;4947135;28;109187;-69
2022/12/20 08:09:36;;;;;;;3.85;1.40;;;;;;;14.83;56.43;101090.03;4937151;28;124677;-69
2022/12/20 08:12:03;;;;;;;3.05;1.45;;;;;;;14.84;56.70;101086.38;4932265;28;124302;-70
2022/12/20 08:14:30;;;;;;;3.05;1.52;;;;;;;14.87;56.60;101096.03;4938848;28;109336;-69
2022/12/20 08:16:57;;;;;;;3.38;1.75;;;;;;;14.88;56.66;101100.41;4942153;28;108818;-69
2022/12/20 08:19:25;;;;;;;4.00;1.35;;;;;;;14.89;56.62;101104.81;4942594;28;123768;-69
2022/12/20 08:21:58;;;;;;;4.85;1.70;;;;;;;14.91;56.56;101103.75;4939191;28;123121;-69
2022/12/20 08:24:25;;;;;;;2.60;1.70;;;;;;;14.92;56.44;101100.16;4938011;28;108908;-69
2022/12/20 08:26:52;;;;;;;4.55;1.70;;;;;;;14.94;56.37;101098.25;4935735;28;108418;-69
2022/12/20 08:29:20;;;;;;;2.55;1.42;;;;;;;14.95;56.51;101094.63;4935937;28;124048;-70
2022/12/20 08:31:47;;;;;;;2.25;1.52;;;;;;;14.96;56.59;101101.69;4943465;28;123071;-69
2022/12/20 08:34:17;;;;;;;5.68;1.55;;;;;;;14.96;56.60;101101.69;4940032;28;108981;-70
2022/12/20 08:36:44;;;;;;;4.90;1.80;;;;;;;14.97;56.60;101098.06;4941534;28;109498;-70
2022/12/20 08:39:12;;;;;;;3.05;1.65;;;;;;;14.97;56.65;101098.06;4943964;28;123993;-70
2022/12/20 08:41:39;;;;;;;2.58;1.50;;;;;;;14.96;56.62;101091.00;4954015;28;123883;-70
2022/12/20 08:44:06;;;;;;;3.33;1.60;;;;;;;14.96;56.79;101096.34;4936031;28;109480;-71
2022/12/20 08:46:33;;;;;;;3.00;1.63;;;;;;;14.96;56.81;101090.16;4944199;28;109661;-70
2022/12/20 08:49:00;;;;;;;3.53;1.60;;;;;;;14.94;57.02;101102.72;4938513;28;123799;-70
2022/12/20 08:51:28;;;;;;;3.55;1.58;;;;;;;14.93;57.05;101096.50;4936596;28;123878;-70
2022/12/20 08:53:55;;;;;;;3.83;1.58;;;;;;;14.91;57.19;101095.75;4939164;28;109576;-71
2022/12/20 08:56:23;;;;;;;3.05;1.60;;;;;;;14.89;57.27;101094.97;4958848;28;108411;-70
2022/12/20 08:58:50;;;;;;;3.53;1.73;;;;;;;14.87;57.38;101086.22;4944541;28;125446;-70
2022/12/20 09:01:20;;;;;;;4.13;1.75;;;;;;;14.85;57.72;101088.13;4934939;28;123717;-71
2022/12/20 09:03:48;;;;;;;2.67;1.95;;;;;;;14.85;57.76;101088.13;4944077;28;108359;-71
2022/12/20 09:06:21;;;;;;;4.32;1.55;;;;;;;14.85;57.66;101093.44;4943332;28;108275;-71
2022/12/20 09:08:48;;;;;;;2.95;1.42;;;;;;;14.83;57.70;101089.16;4940527;28;123146;-72
2022/12/20 09:11:24;;;;;;;5.25;1.60;;;;;;;14.79;57.91;101091.16;4943627;28;124344;-71
2022/12/20 09:13:53;;;;;;;4.43;1.58;;;;;;;14.77;57.90;101085.06;4949185;28;109123;-71
2022/12/20 09:16:24;;;;;;;2.00;1.42;;;;;;;14.75;58.03;101081.63;4955633;28;108641;-71
2022/12/20 09:18:53;;;;;;;3.42;1.60;;;;;;;14.72;58.13;101087.13;4938342;28;124299;-71
2022/12/20 09:21:30;;;;;;;2.78;1.60;;;;;;;14.70;58.20;101089.03;4944948;28;125499;-74
2022/12/20 09:23:57;;;;;;;3.63;1.60;;;;;;;14.67;58.25;101083.88;4948422;28;108946;-71
2022/12/20 09:26:25;;;;;;;2.85;1.35;;;;;;;14.65;58.42;101075.09;4952205;28;109060;-71
2022/12/20 09:28:53;;;;;;;3.58;1.50;;;;;;;14.63;58.48;101077.84;4953392;28;123228;-72
2022/12/20 09:31:23;;;;;;;4.35;1.30;;;;;;;14.63;58.39;101077.84;4948194;28;124110;-72
2022/12/20 09:33:55;;;;;;;3.50;1.52;;;;;;;14.62;58.44;101076.16;4947916;28;110441;-71
2022/12/20 09:36:25;;;;;;;2.72;1.20;;;;;;;14.63;58.73;101071.66;4941187;28;109162;-71
2022/12/20 09:38:53;;;;;;;2.00;1.27;;;;;;;14.61;58.56;101074.41;4944294;28;124430;-72
2022/12/20 09:41:41;;;;;;;2.03;1.20;;;;;;;14.59;58.67;101077.16;4940892;28;123630;-71
2022/12/20 09:44:21;;;;;;;3.15;1.38;;;;;;;14.59;58.59;101077.16;4932172;28;108572;-71
2022/12/20 09:46:54;;;;;;;1.92;1.20;;;;;;;14.59;58.74;101074.50;4938948;28;108672;-71
2022/12/20 09:49:27;;;;;;;3.15;1.38;;;;;;;14.59;58.90;101071.84;4953124;28;124805;-70
2022/12/20 09:52:14;;;;;;;2.47;1.30;;;;;;;14.62;58.83;101069.94;4932059;28;123840;-70
2022/12/20 09:55:16;;;;;;;3.40;1.23;;;;;;;14.63;59.03;101067.19;4935012;28;109154;-69
2022/12/20 09:57:49;;;;;;;2.53;1.30;;;;;;;14.66;59.09;101060.84;4934934;28;108956;-69
2022/12/20 10:00:18;;;;;;;2.53;1.40;;;;;;;14.69;59.07;101065.97;4950197;28;123999;-68
2022/12/20 10:02:46;;;;;;;3.83;1.30;;;;;;;14.70;59.13;101065.88;4952271;28;123892;-70
2022/12/20 10:05:54;;;;;;;3.20;1.23;;;;;;;14.73;59.24;101072.84;4945333;28;108975;-70
2022/12/20 10:08:44;;;;;;;2.13;1.25;;;;;;;14.77;59.17;101063.72;4934007;28;109227;-69
2022/12/20 10:11:32;;;;;;;4.07;1.70;;;;;;;14.79;59.20;101068.00;4945030;28;124828;-69
2022/12/20 10:14:33;;;;;;;2.58;1.45;;;;;;;14.82;59.17;101053.63;4940439;28;123833;-69
2022/12/20 10:17:07;;;;;;;1.75;1.13;;;;;;;14.84;59.11;101049.06;4933494;28;109077;-68
2022/12/20 10:19:59;;;;;;;3.00;1.20;;;;;;;14.85;59.08;101053.47;4935631;28;108794;-69
2022/12/20 10:22:42;;;;;;;3.45;1.40;;;;;;;14.86;59.06;101047.19;4935780;28;124177;-69
2022/12/20 10:25:22;;;;;;;2.88;1.30;;;;;;;14.88;58.94;101045.28;4931313;28;123514;-69
2022/12/20 10:27:55;;;;;;;3.25;1.10;;;;;;;14.89;59.11;101046.97;4933362;28;109246;-69
2022/12/20 10:30:25;;;;;;;2.10;1.30;;;;;;;14.92;59.03;101040.63;4935951;28;110323;-69
2022/12/20 10:32:55;;;;;;;2.50;1.45;;;;;;;14.93;59.04;101037.00;4965369;28;124408;-68
2022/12/20 10:35:35;;;;;;;2.47;1.27;;;;;;;14.95;58.96;101041.28;4944902;28;123789;-69
2022/12/20 10:38:08;;;;;;;2.45;1.40;;;;;;;14.96;58.85;101027.00;4950949;28;108548;-69
2022/12/20 10:40:37;;;;;;;1.95;1.27;;;;;;;14.99;59.03;101037.50;4947008;28;107948;-68
2022/12/20 10:43:25;;;;;;;2.30;1.48;;;;;;;15.05;58.96;101035.38;4946456;28;124441;-69
2022/12/20 10:46:07;;;;;;;3.08;1.60;;;;;;;15.08;58.98;101025.38;4952870;28;123974;-69
2022/12/20 10:48:37;;;;;;;4.75;1.50;;;;;;;15.12;59.02;101026.91;4946537;28;108950;-69
2022/12/20 10:51:07;;;;;;;2.72;1.55;;;;;;;15.15;59.01;101028.56;4947655;28;110384;-69
2022/12/20 10:54:00;;;;;;;3.55;1.60;;;;;;;15.21;58.80;101030.84;4939461;28;125151;-70
2022/12/20 10:56:35;;;;;;;2.63;1.60;;;;;;;15.23;58.91;101028.94;4940739;28;123730;-69
2022/12/20 10:59:14;;;;;;;6.60;1.50;;;;;;;15.26;58.80;101034.09;4936319;28;108443;-69
2022/12/20 11:01:44;;;;;;;2.28;1.45;;;;;;;15.28;58.86;101029.50;4939857;28;109350;-69
2022/12/20 11:04:23;;;;;;;3.97;1.48;;;;;;;15.30;58.87;101030.28;4935713;28;123920;-69
2022/12/20 11:06:51;;;;;;;4.18;1.58;;;;;;;15.29;58.74;101033.03;4934880;28;123678;-70
2022/12/20 11:09:33;;;;;;;2.60;1.50;;;;;;;15.26;58.98;101023.41;4941594;28;109363;-69
2022/12/20 11:12:12;;;;;;;3.13;1.60;;;;;;;15.24;59.01;101025.31;4945093;28;109159;-70
2022/12/20 11:14:41;;;;;;;3.00;1.55;;;;;;;15.21;59.09;101020.16;4946150;28;123792;-69
2022/12/20 11:17:27;;;;;;;5.03;1.70;;;;;;;15.17;58.95;101026.66;4942074;28;124484;-70
2022/12/20 11:20:15;;;;;;;3.78;1.75;;;;;;;15.14;59.34;101018.81;4948324;28;110113;-70
2022/12/20 11:22:55;;;;;;;4.90;1.70;;;;;;;15.11;59.46;101019.03;4945461;28;110054;-70
2022/12/20 11:25:28;;;;;;;4.82;1.63;;;;;;;15.08;59.49;101011.19;4946491;28;124009;-70
2022/12/20 11:28:27;;;;;;;3.42;1.80;;;;;;;15.05;59.57;101008.72;4943606;28;123188;-70
2022/12/20 11:31:42;;;;;;;5.35;1.70;;;;;;;15.01;59.80;101017.84;4949475;28;109350;-70
2022/12/20 11:34:29;;;;;;;3.65;1.83;;;;;;;14.99;59.79;101018.81;4941184;28;108835;-70
2022/12/20 11:37:14;;;;;;;3.78;1.98;;;;;;;14.97;59.72;101011.84;4938719;28;123896;-70
2022/12/20 11:39:49;;;;;;;;;;;;;;;14.93;59.65;101011.16;4934183;28;123840;-70
2022/12/20 11:42:35;;;;;;;3.20;1.83;;;;;;;14.92;59.73;101013.97;4934238;28;109503;-70
2022/12/20 11:45:41;;;;;;;3.83;1.90;;;;;;;14.89;60.09;101014.97;4931001;28;108927;-70
2022/12/20 11:48:43;;;;;;;2.53;1.70;;;;;;;14.86;60.09;100999.19;4935717;28;124164;-70